Hartley, Texas
Current Conditions -  °F | °C
As of 8:53 AM on Tuesday 21 Oct 2014 (Local Time) from KDHT Reporting Station
Scattered Clouds Scattered Clouds  
Wind Chill: 53°   Ceiling: Unl
Heat Index: 53°   Visibility: 7mi
Dew Point: 47°   Wind: 0mph
Humidity: 80%   Direction: NA
Pressure: 30.14"   Gusts: NA
Location:  35.89°N, 102.4°W
Report Text: KDHT 211353Z AUTO 00000KT 7SM SCT055 12/08 A3014 RMK AO2 SLP176 T01170083
Loading
Personal Weather Stations






























Interactive Weather Map
Tropical Storm Tracking
New forecast layout! Learn more

10-Day Weather Forecast

Advertisements
Track Severe Weather on mobile